• Join FlightAware (Why Join?)
  • Login
  • US Flag 
04:47PM EDT


 

Airport Tracker/Info


-or-


 

Live Flight TrackerFlight Track Log ✈ N597HS ✈ 04-May-2013 ✈ KSDL - KCNY

Flight Track Log - Related Links

Times and Time Zones

All times are in EDT time to prevent confusion due to time zone crossing. See the N597HS flight status page for this flight to view local times or setup timezone preferences in your user account.

Time Position Orientation Groundspeed Altitude Reporting Facility
EDT Latitude Longitude Course Direction KTS MPH feet Rate Location/Type
12:43PM 33.8000 -111.9333 18° North 150 173 7,800  Level Phoenix TRACON
12:44PM 33.8139 -111.9281 18° North 148 170 8,200 600 Climbing Albuquerque Center
12:45PM 33.8558 -111.9275 North 150 173 8,800 480 Climbing Albuquerque Center
12:46PM 33.8997 -111.9267 North 154 177 9,300 480 Climbing Albuquerque Center
12:47PM 33.9428 -111.9253 North 153 176 9,900 480 Climbing Albuquerque Center
12:48PM 33.8358 -111.8267 18° North  Level Estimated
12:48PM 33.9864 -111.9247 North 154 177 10,400  Level Albuquerque Center
12:49PM 34.0339 -111.9225 North 169 194 10,300 -120 Descending Albuquerque Center
12:51PM 34.0919 -111.8975 20° North  Level Estimated
12:58PM 34.3380 -111.7910 20° North  Level Estimated
12:59PM 34.3731 -111.7757 20° North  Level Estimated
01:00PM 34.4083 -111.7604 20° North  Level Estimated
01:01PM 34.4434 -111.7451 20° North  Level Estimated
01:02PM 34.4786 -111.7299 20° North  Level Estimated
01:03PM 34.5137 -111.7145 20° North  Level Estimated
01:04PM 34.5489 -111.6992 20° North  Level Estimated
01:05PM 34.5840 -111.6839 20° North  Level Estimated
01:06PM 34.6191 -111.6685 20° North  Level Estimated
01:07PM 34.6543 -111.6531 20° North  Level Estimated
01:08PM 34.6894 -111.6377 20° North  Level Estimated
01:09PM 34.7245 -111.6224 20° North  Level Estimated
01:10PM 34.7597 -111.6069 20° North  Level Estimated
01:11PM 34.7948 -111.5915 20° North  Level Estimated
01:12PM 34.8299 -111.5761 20° North  Level Estimated
01:13PM 34.8650 -111.5606 20° North  Level Estimated
01:14PM 34.9001 -111.5452 20° North  Level Estimated
01:15PM 34.9352 -111.5297 20° North  Level Estimated
01:16PM 34.9704 -111.5142 20° North  Level Estimated
01:17PM 35.0055 -111.4987 20° North  Level Estimated
01:18PM 35.0406 -111.4832 20° North  Level Estimated
01:19PM 35.0757 -111.4677 20° North  Level Estimated
01:20PM 35.1108 -111.4521 20° North  Level Estimated
01:21PM 35.1459 -111.4366 20° North  Level Estimated
01:22PM 35.1810 -111.4210 20° North  Level Estimated
01:23PM 35.2161 -111.4054 20° North  Level Estimated
01:24PM 35.2512 -111.3898 20° North  Level Estimated
01:25PM 35.2863 -111.3742 20° North  Level Estimated
01:26PM 35.3214 -111.3586 20° North  Level Estimated
01:27PM 35.3565 -111.3430 20° North  Level Estimated
01:28PM 35.3916 -111.3273 20° North  Level Estimated
01:29PM 35.4267 -111.3117 20° North  Level Estimated
01:30PM 35.4618 -111.2960 20° North  Level Estimated
01:31PM 35.4969 -111.2803 20° North  Level Estimated
01:32PM 35.5320 -111.2646 20° North  Level Estimated
01:33PM 35.5670 -111.2489 20° North  Level Estimated
01:34PM 35.6021 -111.2331 20° North  Level Estimated
01:35PM 35.6372 -111.2174 20° North  Level Estimated
01:36PM 35.6723 -111.2017 20° North  Level Estimated
01:37PM 35.7073 -111.1859 20° North  Level Estimated
01:38PM 35.7424 -111.1701 20° North  Level Estimated
01:39PM 35.7775 -111.1543 20° North  Level Estimated
01:40PM 35.8125 -111.1385 20° North  Level Estimated
01:41PM 35.8476 -111.1227 20° North  Level Estimated
01:42PM 35.8827 -111.1068 20° North  Level Estimated
01:43PM 35.9177 -111.0910 20° North  Level Estimated
01:44PM 35.9528 -111.0751 20° North  Level Estimated
01:45PM 35.9878 -111.0592 20° North  Level Estimated
01:46PM 36.0229 -111.0433 20° North  Level Estimated
01:47PM 36.0579 -111.0274 20° North  Level Estimated
01:48PM 36.0930 -111.0115 20° North  Level Estimated
01:49PM 36.1280 -110.9955 20° North  Level Estimated
01:50PM 36.1631 -110.9796 20° North  Level Estimated
01:51PM 36.1981 -110.9636 20° North  Level Estimated
01:52PM 36.2332 -110.9476 20° North  Level Estimated
01:53PM 36.2682 -110.9316 20° North  Level Estimated
01:54PM 36.3032 -110.9156 20° North  Level Estimated
01:55PM 36.3383 -110.8996 20° North  Level Estimated
01:56PM 36.3733 -110.8835 20° North  Level Estimated
01:57PM 36.4084 -110.8675 20° North  Level Estimated
01:58PM 36.4434 -110.8514 20° North  Level Estimated
01:59PM 36.4784 -110.8353 20° North  Level Estimated
02:00PM 36.5134 -110.8192 20° North  Level Estimated
02:01PM 36.5485 -110.8031 20° North  Level Estimated
02:02PM 36.5835 -110.7870 20° North  Level Estimated
02:03PM 36.6185 -110.7708 20° North  Level Estimated
02:04PM 36.6535 -110.7547 20° North  Level Estimated
02:05PM 36.6885 -110.7385 20° North  Level Estimated
02:06PM 36.7235 -110.7223 20° North  Level Estimated
02:07PM 36.7585 -110.7061 20° North  Level Estimated
02:08PM 36.7935 -110.6899 20° North  Level Estimated
02:09PM 36.8285 -110.6737 20° North  Level Estimated
02:10PM 36.8635 -110.6574 20° North  Level Estimated
02:11PM 36.8985 -110.6412 20° North  Level Estimated
02:12PM 36.9336 -110.6249 20° North  Level Estimated
02:13PM 36.9686 -110.6086 20° North  Level Estimated
02:14PM 37.0035 -110.5923 20° North  Level Estimated
02:15PM 37.0385 -110.5760 20° North  Level Estimated
02:16PM 37.0735 -110.5596 20° North  Level Estimated
02:17PM 37.1085 -110.5433 20° North  Level Estimated
02:18PM 37.1435 -110.5269 20° North  Level Estimated
02:19PM 37.1785 -110.5105 20° North  Level Estimated
02:20PM 37.2135 -110.4941 20° North  Level Estimated
02:21PM 37.2484 -110.4777 20° North  Level Estimated
02:22PM 37.2834 -110.4613 20° North  Level Estimated
02:23PM 37.3184 -110.4448 20° North  Level Estimated
02:24PM 37.3534 -110.4284 21° North  Level Estimated
02:25PM 37.3883 -110.4119 21° North  Level Estimated
02:26PM 37.4233 -110.3954 21° North  Level Estimated
02:27PM 37.4582 -110.3789 21° North  Level Estimated
02:28PM 37.4932 -110.3624 21° North  Level Estimated
02:29PM 37.5282 -110.3459 21° North  Level Estimated
02:30PM 37.5631 -110.3293 21° North  Level Estimated
02:31PM 37.5981 -110.3128 21° North  Level Estimated
02:32PM 37.6330 -110.2962 21° North  Level Estimated
02:33PM 37.6680 -110.2796 21° North  Level Estimated
02:34PM 37.7029 -110.2630 21° North  Level Estimated
02:35PM 37.7379 -110.2463 21° North  Level Estimated
02:36PM 37.7728 -110.2297 21° North  Level Estimated
02:37PM 37.8078 -110.2130 21° North  Level Estimated
02:38PM 37.8427 -110.1964 21° North  Level Estimated
02:39PM 37.8776 -110.1797 21° North  Level Estimated
02:40PM 37.9126 -110.1629 21° North  Level Estimated
02:41PM 37.9475 -110.1462 21° North  Level Estimated
02:42PM 37.9824 -110.1295 21° North  Level Estimated
02:43PM 38.0174 -110.1127 21° North  Level Estimated
02:44PM 38.0523 -110.0960 21° North  Level Estimated
02:45PM 38.0872 -110.0792 21° North  Level Estimated
02:46PM 38.1221 -110.0624 21° North  Level Estimated
02:47PM 38.1570 -110.0456 21° North  Level Estimated
02:48PM 38.1920 -110.0287 21° North  Level Estimated
02:49PM 38.2269 -110.0119 21° North  Level Estimated
02:50PM 38.2618 -109.9950 21° North  Level Estimated
02:51PM 38.2967 -109.9781 21° North  Level Estimated
02:52PM 38.3316 -109.9612 21° North  Level Estimated
02:53PM 38.3665 -109.9443 21° North  Level Estimated
02:54PM 38.4014 -109.9274 21° North  Level Estimated
02:55PM 38.4363 -109.9104 21° North  Level Estimated
02:56PM 38.4712 -109.8935 21° North  Level Estimated
02:57PM 38.5061 -109.8765 21° North  Level Estimated
02:58PM 38.5410 -109.8595 21° North  Level Estimated
02:59PM 38.5759 -109.8425 21° North  Level Estimated
03:00PM 38.6107 -109.8254 21° North  Level Estimated
03:01PM 38.6456 -109.8084 21° North  Level Estimated
03:02PM 38.6805 -109.7913 21° North  Level Estimated
03:03PM 38.7154 -109.7742 21° North  Level Estimated
03:04PM 38.7503 -109.7571 21° North  Level Estimated
03:05PM 38.7550 -109.7548 21° North  Level Estimated
03:06PM 38.7550 -109.7548 218° Southwest  Level Estimated
03:07PM 38.7550 -109.7548 218° Southwest  Level Estimated
03:08PM 38.7550 -109.7548 218° Southwest  Level Estimated
03:09PM 38.7550 -109.7548 218° Southwest  Level Estimated
03:10PM 38.7550 -109.7548 218° Southwest  Level Estimated
03:11PM 38.7550 -109.7548 218° Southwest  Level Estimated
03:12PM 38.7550 -109.7548 218° Southwest  Level Estimated
03:13PM 38.7550 -109.7548 218° Southwest  Level Estimated
03:14PM 38.7550 -109.7548 218° Southwest  Level Estimated
03:15PM 38.7550 -109.7548 218° Southwest  Level Estimated
03:16PM 38.7550 -109.7548 218° Southwest  Level Estimated
03:17PM 38.7550 -109.7548 218° Southwest  Level Estimated
03:18PM 38.7550 -109.7548 218° Southwest  Level Estimated
03:19PM 38.7550 -109.7548 218° Southwest  Level Estimated
03:20PM 38.7550 -109.7548 218° Southwest  Level Estimated
03:21PM 38.7550 -109.7548 218° Southwest  Level Estimated
03:22PM 38.7550 -109.7548 218° Southwest  Level Estimated
03:23PM 38.7550 -109.7548 218° Southwest  Level Estimated